Stallion Springs, California
Current Conditions -  °F | °C
As of 9:35 PM on Monday 26 Jan 2015 (Local Time) from KTSP Reporting Station
Light Rain Light Rain  
Wind Chill: 40°   Ceiling: 2000
Heat Index: 45°   Visibility: 4mi
Dew Point: 43°   Wind: 8mph
Humidity: 93%   Direction: 150°SSE
Pressure: 30.13"   Gusts: NA
Location:  35.1338°N, 118.552°W
Report Text: KTSP 270535Z AUTO 15007KT 4SM -RA SCT014 OVC020 07/06 A3013 RMK AO2
Loading
Personal Weather Stations






























Interactive Weather Map New forecast layout! Learn more

10-Day Weather Forecast

Advertisements
Track Severe Weather on mobile